createdAt,value
2018-04-12T00:02:12.596Z,100392.70
2018-04-12T00:04:38.401Z,100387.73
2018-04-12T00:07:04.208Z,100390.38
2018-04-12T00:09:30.049Z,100387.05
2018-04-12T00:11:55.852Z,100384.81
2018-04-12T00:14:21.660Z,100379.45
2018-04-12T00:16:47.465Z,100386.47
2018-04-12T00:19:13.272Z,100384.50
2018-04-12T00:21:39.081Z,100380.36
2018-04-12T00:24:04.894Z,100383.19
2018-04-12T00:26:30.737Z,100381.09
2018-04-12T00:28:56.545Z,100382.59
2018-04-12T00:31:22.353Z,100380.67
2018-04-12T00:33:48.333Z,100379.34
2018-04-12T00:36:14.148Z,100379.84
2018-04-12T00:38:39.961Z,100372.52
2018-04-12T00:41:05.766Z,100370.70
2018-04-12T00:43:31.569Z,100366.80
2018-04-12T00:45:57.406Z,100374.47
2018-04-12T00:48:23.225Z,100370.74
2018-04-12T00:50:49.045Z,100372.77
2018-04-12T00:53:20.944Z,100376.21
2018-04-12T00:55:46.817Z,100374.28
2018-04-12T00:58:12.624Z,100374.88
2018-04-12T01:00:38.432Z,100373.36
2018-04-12T01:03:04.238Z,100365.54
2018-04-12T01:05:30.073Z,100368.08
2018-04-12T01:07:56.020Z,100370.52
2018-04-12T01:10:21.865Z,100368.08
2018-04-12T01:12:47.665Z,100359.85
2018-04-12T01:15:13.485Z,100365.37
2018-04-12T01:17:39.292Z,100362.30
2018-04-12T01:20:05.112Z,100360.23
2018-04-12T01:22:31.072Z,100363.90
2018-04-12T01:24:56.877Z,100357.30
2018-04-12T01:27:29.593Z,100350.81
2018-04-12T01:29:55.400Z,100350.91
2018-04-12T01:32:21.208Z,100353.39
2018-04-12T01:34:47.008Z,100352.71
2018-04-12T01:37:12.809Z,100354.30
2018-04-12T01:39:38.620Z,100353.05
2018-04-12T01:42:04.436Z,100348.59
2018-04-12T01:44:37.025Z,100351.80
2018-04-12T01:47:02.864Z,100354.02
2018-04-12T01:49:28.673Z,100355.03
2018-04-12T01:51:54.513Z,100349.05
2018-04-12T01:54:20.369Z,100349.88
2018-04-12T01:56:46.172Z,100349.02
2018-04-12T01:59:11.978Z,100343.35
2018-04-12T02:01:37.789Z,100338.08
2018-04-12T02:04:03.602Z,100340.12
2018-04-12T02:06:29.414Z,100343.67
2018-04-12T02:08:55.257Z,100340.00
2018-04-12T02:11:21.081Z,100336.79
2018-04-12T02:13:46.912Z,100335.28
2018-04-12T02:16:12.726Z,100341.31
2018-04-12T02:18:38.557Z,100338.61
2018-04-12T02:21:04.381Z,100333.90
2018-04-12T02:23:30.217Z,100343.86
2018-04-12T02:25:56.029Z,100340.42
2018-04-12T02:28:23.353Z,100332.70
2018-04-12T02:30:49.165Z,100334.70
2018-04-12T02:33:14.973Z,100325.75
2018-04-12T02:35:40.813Z,100320.06
2018-04-12T02:38:06.639Z,100322.64
2018-04-12T02:40:32.449Z,100324.36
2018-04-12T02:42:58.253Z,100320.74
2018-04-12T02:45:24.065Z,100318.44
2018-04-12T02:47:49.875Z,100325.69
2018-04-12T02:50:15.813Z,100318.29
2018-04-12T02:52:41.623Z,100313.80
2018-04-12T02:55:07.429Z,100312.08
2018-04-12T02:57:33.237Z,100313.31
2018-04-12T02:59:59.040Z,100315.64
2018-04-12T03:02:24.849Z,100302.65
2018-04-12T03:04:50.656Z,100303.33
2018-04-12T03:07:16.462Z,100300.09
2018-04-12T03:09:42.264Z,100298.95
2018-04-12T03:12:08.085Z,100292.66
2018-04-12T03:14:33.900Z,100287.89
2018-04-12T03:16:59.704Z,100291.86
2018-04-12T03:19:25.514Z,100288.29
2018-04-12T03:21:51.368Z,100281.66
2018-04-12T03:24:17.174Z,100284.65
2018-04-12T03:26:43.012Z,100279.62
2018-04-12T03:29:08.836Z,100281.17
2018-04-12T03:31:34.653Z,100274.26
2018-04-12T03:34:00.457Z,100267.61
2018-04-12T03:36:26.265Z,100267.65
2018-04-12T03:38:52.073Z,100263.76
2018-04-12T03:41:17.896Z,100260.37
2018-04-12T03:43:43.707Z,100259.94
2018-04-12T03:46:09.512Z,100263.28
2018-04-12T03:48:35.351Z,100252.84
2018-04-12T03:51:01.209Z,100247.64
2018-04-12T03:53:27.037Z,100248.88
2018-04-12T03:55:52.875Z,100252.12
2018-04-12T03:58:18.677Z,100242.64
2018-04-12T04:00:44.504Z,100243.89
2018-04-12T04:03:10.320Z,100249.38
2018-04-12T04:05:36.918Z,100244.78
2018-04-12T04:08:02.725Z,100251.86
2018-04-12T04:10:28.532Z,100248.20
2018-04-12T04:12:54.378Z,100256.66
2018-04-12T04:15:26.265Z,100247.00
2018-04-12T04:17:58.185Z,100244.77
2018-04-12T04:20:30.153Z,100240.13
2018-04-12T04:22:55.961Z,100245.20
2018-04-12T04:25:21.802Z,100238.58
2018-04-12T04:27:54.516Z,100235.94
2018-04-12T04:30:20.360Z,100243.52
2018-04-12T04:32:46.169Z,100251.38
2018-04-12T04:35:11.980Z,100247.00
2018-04-12T04:37:38.604Z,100250.48
2018-04-12T04:40:04.416Z,100249.06
2018-04-12T04:42:30.228Z,100249.56
2018-04-12T04:44:56.083Z,100246.58
2018-04-12T04:47:21.937Z,100248.30
2018-04-12T04:49:47.745Z,100247.64
2018-04-12T04:52:13.606Z,100246.45
2018-04-12T04:54:39.409Z,100253.36
2018-04-12T04:57:05.229Z,100257.31
2018-04-12T04:59:31.037Z,100260.62
2018-04-12T05:01:56.860Z,100259.86
2018-04-12T05:04:22.665Z,100255.62
2018-04-12T05:06:48.499Z,100260.36
2018-04-12T05:09:14.329Z,100253.44
2018-04-12T05:11:40.133Z,100252.01
2018-04-12T05:14:05.968Z,100255.56
2018-04-12T05:16:31.774Z,100255.85
2018-04-12T05:18:57.604Z,100255.59
2018-04-12T05:21:23.441Z,100249.12
2018-04-12T05:23:49.267Z,100253.20
2018-04-12T05:26:15.097Z,100255.50
2018-04-12T05:28:40.903Z,100244.86
2018-04-12T05:31:06.743Z,100247.56
2018-04-12T05:33:32.548Z,100245.27
2018-04-12T05:35:58.450Z,100244.01
2018-04-12T05:38:24.479Z,100242.21
2018-04-12T05:40:50.333Z,100242.70
2018-04-12T05:43:16.264Z,100244.70
2018-04-12T05:45:42.073Z,100249.53
2018-04-12T05:48:07.881Z,100241.11
2018-04-12T05:50:33.692Z,100254.40
2018-04-12T05:52:59.541Z,100249.56
2018-04-12T05:55:25.388Z,100249.03
2018-04-12T05:57:51.341Z,100243.45
2018-04-12T06:00:17.157Z,100251.45
2018-04-12T06:02:42.960Z,100248.39
2018-04-12T06:05:08.768Z,100247.71
2018-04-12T06:07:34.580Z,100241.61
2018-04-12T06:10:00.385Z,100243.87
2018-04-12T06:12:26.197Z,100241.04
2018-04-12T06:14:52.004Z,100244.25
2018-04-12T06:17:17.817Z,100239.08
2018-04-12T06:19:44.421Z,100245.58
2018-04-12T06:22:10.236Z,100240.15
2018-04-12T06:24:36.054Z,100240.86
2018-04-12T06:27:01.908Z,100243.70
2018-04-12T06:29:27.705Z,100237.80
2018-04-12T06:31:53.564Z,100243.72
2018-04-12T06:34:19.372Z,100238.53
2018-04-12T06:36:45.185Z,100248.00
2018-04-12T06:39:10.989Z,100247.03
2018-04-12T06:41:36.805Z,100242.08
2018-04-12T06:44:02.645Z,100230.89
2018-04-12T06:46:28.468Z,100229.70
2018-04-12T06:48:54.269Z,100229.98
2018-04-12T06:51:20.073Z,100223.92
2018-04-12T06:53:45.885Z,100210.78
2018-04-12T06:56:11.704Z,100218.23
2018-04-12T06:58:37.512Z,100216.63
2018-04-12T07:01:03.322Z,100223.32
2018-04-12T07:03:29.168Z,100221.03
2018-04-12T07:05:55.171Z,100216.22
2018-04-12T07:08:21.067Z,100215.80
2018-04-12T07:10:46.882Z,100220.38
2018-04-12T07:13:12.733Z,100214.91
2018-04-12T07:15:38.543Z,100218.80
2018-04-12T07:18:04.388Z,100223.33
2018-04-12T07:20:30.197Z,100214.68
2018-04-12T07:22:56.097Z,100210.04
2018-04-12T07:25:21.906Z,100210.72
2018-04-12T07:27:47.725Z,100206.98
2018-04-12T07:30:13.951Z,100203.13
2018-04-12T07:32:39.821Z,100202.67
2018-04-12T07:35:05.649Z,100204.39
2018-04-12T07:37:31.556Z,100198.28
2018-04-12T07:39:57.405Z,100196.73
2018-04-12T07:42:23.277Z,100194.52
2018-04-12T07:44:49.125Z,100190.47
2018-04-12T07:47:14.973Z,100193.59
2018-04-12T07:49:40.824Z,100195.19
2018-04-12T07:52:07.632Z,100198.96
2018-04-12T07:54:33.470Z,100190.70
2018-04-12T07:56:59.278Z,100187.56
2018-04-12T07:59:25.126Z,100189.64
2018-04-12T08:01:50.974Z,100187.75
2018-04-12T08:04:16.809Z,100187.77
2018-04-12T08:06:42.668Z,100184.72
2018-04-12T08:09:08.486Z,100181.88
2018-04-12T08:11:34.323Z,100185.91
2018-04-12T08:14:00.137Z,100181.85
2018-04-12T08:16:26.001Z,100174.70
2018-04-12T08:18:51.806Z,100171.28
2018-04-12T08:21:17.653Z,100173.02
2018-04-12T08:23:43.493Z,100171.86
2018-04-12T08:26:09.333Z,100164.12
2018-04-12T08:28:35.134Z,100170.13
2018-04-12T08:31:00.943Z,100174.08
2018-04-12T08:33:26.780Z,100176.93
2018-04-12T08:35:52.594Z,100185.83
2018-04-12T08:38:18.461Z,100188.84
2018-04-12T08:40:44.264Z,100190.88
2018-04-12T08:43:10.096Z,100193.92
2018-04-12T08:45:36.725Z,100191.56
2018-04-12T08:48:02.563Z,100190.88
2018-04-12T08:50:28.370Z,100193.51
2018-04-12T08:52:54.183Z,100192.11
2018-04-12T08:55:19.996Z,100192.38
2018-04-12T08:57:45.809Z,100193.14
2018-04-12T09:00:11.618Z,100191.41
2018-04-12T09:02:37.429Z,100181.20
2018-04-12T09:05:03.265Z,100186.83
2018-04-12T09:07:29.077Z,100178.12
2018-04-12T09:09:54.929Z,100173.59
2018-04-12T09:12:20.745Z,100174.51
2018-04-12T09:14:46.545Z,100169.20
2018-04-12T09:17:12.385Z,100164.61
2018-04-12T09:19:38.197Z,100158.34
2018-04-12T09:22:04.015Z,100159.80
2018-04-12T09:24:29.839Z,100150.98
2018-04-12T09:26:55.681Z,100140.88
2018-04-12T09:29:21.485Z,100145.95
2018-04-12T09:31:47.337Z,100139.99
2018-04-12T09:34:13.144Z,100130.97
2018-04-12T09:36:38.994Z,100123.83
2018-04-12T09:39:04.817Z,100120.34
2018-04-12T09:41:30.633Z,100116.66
2018-04-12T09:43:56.440Z,100121.38
2018-04-12T09:46:22.273Z,100119.17
2018-04-12T09:48:48.093Z,100117.49
2018-04-12T09:51:13.941Z,100112.90
2018-04-12T09:53:39.753Z,100115.76
2018-04-12T09:56:05.581Z,100116.84
2018-04-12T09:58:31.397Z,100118.66
2018-04-12T10:00:57.255Z,100120.06
2018-04-12T10:03:23.077Z,100118.97
2018-04-12T10:05:55.053Z,100116.55
2018-04-12T10:08:27.946Z,100115.42
2018-04-12T10:10:53.757Z,100124.95
2018-04-12T10:13:19.580Z,100122.38
2018-04-12T10:15:45.388Z,100110.98
2018-04-12T10:18:11.195Z,100107.63
2018-04-12T10:20:37.002Z,100105.69
2018-04-12T10:23:02.813Z,100093.89
2018-04-12T10:25:28.632Z,100107.91
2018-04-12T10:27:54.473Z,100103.47
2018-04-12T10:30:20.285Z,100111.09
2018-04-12T10:32:46.102Z,100110.19
2018-04-12T10:35:11.926Z,100115.50
2018-04-12T10:37:37.740Z,100113.94
2018-04-12T10:40:03.552Z,100110.50
2018-04-12T10:42:29.355Z,100109.87
2018-04-12T10:44:55.181Z,100103.95
2018-04-12T10:47:20.985Z,100096.94
2018-04-12T10:49:46.797Z,100094.81
2018-04-12T10:52:19.433Z,100093.08
2018-04-12T10:54:45.245Z,100093.23
2018-04-12T10:57:11.069Z,100092.81
2018-04-12T10:59:36.921Z,100085.87
2018-04-12T11:02:02.757Z,100091.08
2018-04-12T11:04:28.613Z,100096.29
2018-04-12T11:06:54.416Z,100095.95
2018-04-12T11:09:20.252Z,100103.97
2018-04-12T11:11:46.084Z,100098.50
2018-04-12T11:14:11.919Z,100108.77
2018-04-12T11:16:37.728Z,100090.38
2018-04-12T11:19:03.565Z,100095.25
2018-04-12T11:21:29.392Z,100098.73
2018-04-12T11:23:56.109Z,100101.84
2018-04-12T11:26:21.918Z,100096.78
2018-04-12T11:28:54.561Z,100105.55
2018-04-12T11:31:20.373Z,100096.72
2018-04-12T11:33:46.226Z,100109.99
2018-04-12T11:36:12.037Z,100111.99
2018-04-12T11:38:37.900Z,100100.64
2018-04-12T11:41:03.749Z,100087.08
2018-04-12T11:43:29.556Z,100086.60
2018-04-12T11:45:55.397Z,100085.49
2018-04-12T11:48:21.204Z,100085.44
2018-04-12T11:50:47.056Z,100077.72
2018-04-12T11:53:12.869Z,100075.55
2018-04-12T11:55:38.688Z,100074.37
2018-04-12T11:58:04.533Z,100076.27
2018-04-12T12:00:30.346Z,100069.94
2018-04-12T12:02:56.157Z,100077.36
2018-04-12T12:05:21.957Z,100059.12
2018-04-12T12:07:47.760Z,100060.60
2018-04-12T12:10:13.593Z,100058.18
2018-04-12T12:12:39.417Z,100050.57
2018-04-12T12:15:05.228Z,100052.59
2018-04-12T12:17:31.045Z,100037.27
2018-04-12T12:19:56.860Z,100027.30
2018-04-12T12:22:22.674Z,100016.91
2018-04-12T12:24:48.501Z,100019.98
2018-04-12T12:27:14.317Z,100023.36
2018-04-12T12:29:40.121Z,100016.74
2018-04-12T12:32:05.925Z,100006.63
2018-04-12T12:34:31.741Z,100019.16
2018-04-12T12:36:57.585Z,100012.83
2018-04-12T12:39:23.420Z,99998.78
2018-04-12T12:41:49.257Z,100015.58
2018-04-12T12:44:15.926Z,100021.27
2018-04-12T12:46:41.773Z,100014.86
2018-04-12T12:49:07.577Z,100012.78
2018-04-12T12:51:33.416Z,100009.38
2018-04-12T12:53:59.221Z,100012.96
2018-04-12T12:56:25.057Z,100007.25
2018-04-12T12:58:50.893Z,100004.61
2018-04-12T13:01:16.720Z,100005.88
2018-04-12T13:03:42.564Z,100008.66
2018-04-12T13:06:08.401Z,100006.12
2018-04-12T13:08:34.244Z,100006.92
2018-04-12T13:11:00.053Z,99995.13
2018-04-12T13:13:25.932Z,99995.51
2018-04-12T13:15:51.741Z,99988.11
2018-04-12T13:18:17.559Z,99988.35
2018-04-12T13:20:43.374Z,99992.89
2018-04-12T13:23:09.178Z,99985.63
2018-04-12T13:25:34.989Z,99980.41
2018-04-12T13:28:00.817Z,99975.00
2018-04-12T13:30:26.646Z,99977.20
2018-04-12T13:32:52.493Z,99975.98
2018-04-12T13:35:18.296Z,99976.63
2018-04-12T13:37:44.103Z,99978.55
2018-04-12T13:40:09.909Z,99979.81
2018-04-12T13:42:35.764Z,99984.52
2018-04-12T13:45:01.606Z,99992.27
2018-04-12T13:47:27.432Z,99980.41
2018-04-12T13:49:53.260Z,99966.02
2018-04-12T13:52:22.009Z,99967.39
2018-04-12T13:54:47.818Z,99975.20
2018-04-12T13:57:13.631Z,99976.36
2018-04-12T13:59:39.447Z,99983.03
2018-04-12T14:02:05.261Z,99967.39
2018-04-12T14:04:31.065Z,99979.04
2018-04-12T14:06:56.880Z,99981.11
2018-04-12T14:09:22.699Z,99974.25
2018-04-12T14:11:48.514Z,99988.79
2018-04-12T14:14:14.320Z,99986.07
2018-04-12T14:16:40.128Z,99984.13
2018-04-12T14:19:05.937Z,99989.10
2018-04-12T14:21:31.758Z,99984.22
2018-04-12T14:23:57.573Z,99979.04
2018-04-12T14:26:23.389Z,99981.87
2018-04-12T14:28:49.225Z,99972.89
2018-04-12T14:31:15.032Z,99964.77
2018-04-12T14:33:40.836Z,99969.29
2018-04-12T14:36:06.669Z,99965.89
2018-04-12T14:38:32.516Z,99963.59
2018-04-12T14:40:58.322Z,99956.64
2018-04-12T14:43:24.165Z,99958.30
2018-04-12T14:45:49.969Z,99963.03
2018-04-12T14:48:15.785Z,99953.31
2018-04-12T14:50:41.600Z,99949.30
2018-04-12T14:53:07.405Z,99956.92
2018-04-12T14:55:33.221Z,99957.25
2018-04-12T14:57:59.050Z,99948.73
2018-04-12T15:00:24.888Z,99958.48
2018-04-12T15:02:50.700Z,99966.17
2018-04-12T15:05:16.552Z,99958.86
2018-04-12T15:07:42.361Z,99961.38
2018-04-12T15:10:08.168Z,99965.77
2018-04-12T15:12:33.973Z,99964.02
2018-04-12T15:14:59.805Z,99968.41
2018-04-12T15:17:25.617Z,99967.33
2018-04-12T15:19:51.461Z,99964.28
2018-04-12T15:22:17.283Z,99960.47
2018-04-12T15:24:43.132Z,99958.61
2018-04-12T15:27:08.944Z,99961.22
2018-04-12T15:29:34.779Z,99955.47
2018-04-12T15:32:00.639Z,99959.98
2018-04-12T15:34:26.449Z,99958.30
2018-04-12T15:36:52.269Z,99958.11
2018-04-12T15:39:18.106Z,99955.98
2018-04-12T15:41:43.960Z,99968.92
2018-04-12T15:44:09.770Z,99956.40
2018-04-12T15:46:35.595Z,99955.73
2018-04-12T15:49:01.414Z,99953.31
2018-04-12T15:51:27.264Z,99959.72
2018-04-12T15:53:53.121Z,99959.38
2018-04-12T15:56:18.932Z,99971.83
2018-04-12T15:58:44.787Z,99964.67
2018-04-12T16:01:10.612Z,99969.63
2018-04-12T16:03:36.458Z,99964.88
2018-04-12T16:06:02.272Z,99967.03
2018-04-12T16:08:28.081Z,99965.38
2018-04-12T16:10:53.889Z,99964.75
2018-04-12T16:13:19.696Z,99962.59
2018-04-12T16:15:46.361Z,99960.55
2018-04-12T16:18:12.173Z,99969.29
2018-04-12T16:20:37.983Z,99969.67
2018-04-12T16:23:03.792Z,99974.59
2018-04-12T16:25:29.628Z,99983.11
2018-04-12T16:27:55.464Z,99981.70
2018-04-12T16:30:21.283Z,99975.38
2018-04-12T16:32:47.133Z,99966.36
2018-04-12T16:35:12.948Z,99969.99
2018-04-12T16:37:38.798Z,99968.54
2018-04-12T16:40:04.608Z,99974.58
2018-04-12T16:42:30.426Z,99975.07
2018-04-12T16:44:56.253Z,99978.05
2018-04-12T16:47:22.077Z,99968.95
2018-04-12T16:49:47.937Z,99972.13
2018-04-12T16:52:13.768Z,99972.66
2018-04-12T16:54:39.582Z,99983.99
2018-04-12T16:57:05.425Z,99982.83
2018-04-12T16:59:31.248Z,99982.88
2018-04-12T17:01:57.120Z,99983.52
2018-04-12T17:04:22.938Z,99984.98
2018-04-12T17:06:48.755Z,99985.67
2018-04-12T17:09:14.560Z,99986.59
2018-04-12T17:11:40.384Z,99990.48
2018-04-12T17:14:06.221Z,99989.16
2018-04-12T17:16:32.061Z,99991.66
2018-04-12T17:18:57.875Z,99994.20
2018-04-12T17:21:23.702Z,99994.20
2018-04-12T17:23:49.544Z,99996.07
2018-04-12T17:26:15.361Z,99996.44
2018-04-12T17:28:41.186Z,99995.73
2018-04-12T17:31:07.008Z,99997.34
2018-04-12T17:33:32.829Z,99996.51
2018-04-12T17:35:58.649Z,100004.94
2018-04-12T17:38:24.485Z,100009.47
2018-04-12T17:40:50.293Z,100006.61
2018-04-12T17:43:16.117Z,100006.47
2018-04-12T17:45:41.953Z,100015.65
2018-04-12T17:48:07.841Z,100012.00
2018-04-12T17:50:33.681Z,100012.40
2018-04-12T17:52:59.520Z,100010.94
2018-04-12T17:55:25.332Z,100013.80
2018-04-12T17:57:51.154Z,100009.88
2018-04-12T18:00:17.008Z,100008.19
2018-04-12T18:02:42.820Z,100014.60
2018-04-12T18:05:08.640Z,100015.84
2018-04-12T18:07:34.450Z,100012.08
2018-04-12T18:10:00.306Z,100022.75
2018-04-12T18:12:26.124Z,100017.20
2018-04-12T18:14:51.939Z,100018.81
2018-04-12T18:17:17.756Z,100021.43
2018-04-12T18:19:43.575Z,100014.14
2018-04-12T18:22:09.417Z,100007.86
2018-04-12T18:24:35.230Z,100025.84
2018-04-12T18:27:01.078Z,100021.72
2018-04-12T18:29:26.893Z,100032.41
2018-04-12T18:31:52.757Z,100028.65
2018-04-12T18:34:18.573Z,100032.63
2018-04-12T18:36:44.432Z,100037.53
2018-04-12T18:39:10.253Z,100030.50
2018-04-12T18:41:36.098Z,100032.52
2018-04-12T18:44:01.914Z,100034.13
2018-04-12T18:46:27.753Z,100040.80
2018-04-12T18:48:53.573Z,100038.44
2018-04-12T18:51:19.393Z,100025.11
2018-04-12T18:53:45.245Z,100020.90
2018-04-12T18:56:11.058Z,100019.91
2018-04-12T18:58:36.867Z,100036.16
2018-04-12T19:01:02.688Z,100028.58
2018-04-12T19:03:28.501Z,100030.66
2018-04-12T19:05:55.214Z,100042.23
2018-04-12T19:08:21.029Z,100037.69
2018-04-12T19:10:46.854Z,100031.78
2018-04-12T19:13:12.693Z,100031.23
2018-04-12T19:15:38.506Z,100032.42
2018-04-12T19:18:04.867Z,100024.64
2018-04-12T19:20:31.136Z,100035.14
2018-04-12T19:22:57.434Z,100029.86
2018-04-12T19:25:23.517Z,100037.87
2018-04-12T19:27:50.400Z,100033.52
2018-04-12T19:30:17.950Z,100036.31
2018-04-12T19:32:43.795Z,100033.92
2018-04-12T19:35:10.952Z,100036.91
2018-04-12T19:37:37.922Z,100035.66
2018-04-12T19:40:05.323Z,100035.09
2018-04-12T19:42:31.675Z,100033.98
2018-04-12T19:44:58.337Z,100031.62
2018-04-12T19:47:25.558Z,100036.08
2018-04-12T19:49:52.767Z,100032.86
2018-04-12T19:52:20.017Z,100039.34
2018-04-12T19:54:46.379Z,100033.56
2018-04-12T19:57:13.089Z,100031.13
2018-04-12T19:59:40.372Z,100036.72
2018-04-12T20:02:07.183Z,100037.19
2018-04-12T20:04:33.548Z,100042.56
2018-04-12T20:06:59.858Z,100034.38
2018-04-12T20:09:27.426Z,100038.05
2018-04-12T20:11:53.774Z,100034.21
2018-04-12T20:14:37.083Z,100031.41
2018-04-12T20:17:04.210Z,100029.82
2018-04-12T20:19:31.330Z,100036.44
2018-04-12T20:21:58.070Z,100044.70
2018-04-12T20:24:24.299Z,100035.32
2018-04-12T20:26:51.061Z,100029.33
2018-04-12T20:29:18.008Z,100030.52
2018-04-12T20:31:46.614Z,100042.34
2018-04-12T20:34:14.122Z,100031.09
2018-04-12T20:36:41.652Z,100039.55
2018-04-12T20:39:08.546Z,100040.15
2018-04-12T20:41:34.402Z,100044.66
2018-04-12T20:44:01.094Z,100033.58
2018-04-12T20:46:26.939Z,100033.73
2018-04-12T20:48:52.760Z,100037.36
2018-04-12T20:51:18.666Z,100027.88
2018-04-12T20:53:46.138Z,100029.92
2018-04-12T20:56:14.764Z,100031.50
2018-04-12T20:58:43.073Z,100027.48
2018-04-12T21:01:10.312Z,100028.78
2018-04-12T21:03:37.693Z,100036.17
2018-04-12T21:06:04.389Z,100030.59
2018-04-12T21:08:31.249Z,100025.61
2018-04-12T21:10:58.231Z,100032.77
2018-04-12T21:13:24.766Z,100030.41
2018-04-12T21:15:52.110Z,100026.95
2018-04-12T21:18:19.202Z,100027.72
2018-04-12T21:20:46.015Z,100025.84
2018-04-12T21:23:13.690Z,100035.16
2018-04-12T21:25:39.553Z,100028.02
2018-04-12T21:28:05.381Z,100020.95
2018-04-12T21:30:31.214Z,100032.10
2018-04-12T21:32:57.073Z,100022.06
2018-04-12T21:35:22.889Z,100033.27
2018-04-12T21:37:48.730Z,100030.38
2018-04-12T21:40:14.601Z,100030.78
2018-04-12T21:42:40.445Z,100030.84
2018-04-12T21:45:06.262Z,100027.25
2018-04-12T21:47:32.092Z,100029.99
2018-04-12T21:49:57.909Z,100030.64
2018-04-12T21:52:23.773Z,100029.52
2018-04-12T21:54:49.602Z,100035.05
2018-04-12T21:57:15.601Z,100034.97
2018-04-12T21:59:42.127Z,100033.39
2018-04-12T22:02:08.005Z,100026.13
2018-04-12T22:04:33.820Z,100032.88
2018-04-12T22:06:59.636Z,100031.57
2018-04-12T22:09:25.467Z,100032.34
2018-04-12T22:11:51.305Z,100033.16
2018-04-12T22:14:17.241Z,100039.64
2018-04-12T22:16:43.170Z,100031.21
2018-04-12T22:19:09.126Z,100030.91
2018-04-12T22:21:34.986Z,100036.81
2018-04-12T22:24:00.837Z,100038.71
2018-04-12T22:26:27.122Z,100038.48
2018-04-12T22:28:53.922Z,100044.47
2018-04-12T22:31:19.940Z,100036.59
2018-04-12T22:33:45.756Z,100037.42
2018-04-12T22:36:11.564Z,100034.15
2018-04-12T22:38:37.377Z,100042.84
2018-04-12T22:41:03.200Z,100043.41
2018-04-12T22:43:29.006Z,100045.36
2018-04-12T22:45:54.821Z,100051.34
2018-04-12T22:48:20.645Z,100045.37
2018-04-12T22:50:46.461Z,100050.78
2018-04-12T22:53:12.272Z,100051.88
2018-04-12T22:55:38.090Z,100059.60
2018-04-12T22:58:03.899Z,100052.59
2018-04-12T23:00:29.708Z,100049.34
2018-04-12T23:02:55.524Z,100054.88
2018-04-12T23:05:21.360Z,100048.84
2018-04-12T23:07:47.180Z,100044.04
2018-04-12T23:10:13.016Z,100042.14
2018-04-12T23:12:38.829Z,100032.06
2018-04-12T23:15:04.674Z,100042.80
2018-04-12T23:17:30.487Z,100047.92
2018-04-12T23:19:56.298Z,100034.63
2018-04-12T23:22:22.114Z,100044.11
2018-04-12T23:24:47.965Z,100027.37
2018-04-12T23:27:13.785Z,100028.55
2018-04-12T23:29:39.604Z,100029.67
2018-04-12T23:32:05.444Z,100029.67
2018-04-12T23:34:31.274Z,100034.88
2018-04-12T23:36:57.161Z,100026.90
2018-04-12T23:39:22.996Z,100029.59
2018-04-12T23:41:48.824Z,100028.06
2018-04-12T23:44:14.640Z,100026.33
2018-04-12T23:46:40.450Z,100030.87
2018-04-12T23:49:06.273Z,100039.73
2018-04-12T23:51:32.076Z,100036.70
2018-04-12T23:53:57.889Z,100038.93
2018-04-12T23:56:23.789Z,100041.45
2018-04-12T23:58:49.610Z,100034.01
